Time;durP1;ratioP1;P1;durP2;ratioP2;P2;SDS_P1;SDS_P2;PMS_P1;PMS_P2;Temp;Humidity;BMP_temperature;BMP_pressure;BME280_temperature;BME280_humidity;BME280_pressure;Samples;Min_cycle;Max_cycle;Signal;HPM_P1;HPM_P2
2021/04/22 00:00:22;;;;;;;18.08;5.55;;;16.10;63.40;;;;;;5040782;28;20041;-60
2021/04/22 00:02:48;;;;;;;22.77;6.30;;;16.10;63.50;;;;;;5038077;28;20135;-61
2021/04/22 00:05:17;;;;;;;15.65;5.70;;;16.10;63.60;;;;;;5040171;28;20112;-61
2021/04/22 00:07:42;;;;;;;18.30;5.20;;;16.10;63.60;;;;;;5039799;28;20025;-61
2021/04/22 00:10:12;;;;;;;14.73;5.35;;;16.10;63.70;;;;;;5038444;28;20037;-60
2021/04/22 00:12:38;;;;;;;17.65;5.90;;;16.00;63.70;;;;;;5022707;28;20029;-60
2021/04/22 00:15:14;;;;;;;18.77;6.45;;;16.00;63.90;;;;;;5021379;28;20533;-61
2021/04/22 00:17:40;;;;;;;17.38;5.60;;;16.00;63.90;;;;;;5040613;28;20029;-61
2021/04/22 00:20:06;;;;;;;17.85;5.43;;;15.90;64.00;;;;;;5038199;28;20488;-61
2021/04/22 00:22:31;;;;;;;22.58;6.28;;;15.90;64.00;;;;;;5023449;28;20090;-61
2021/04/22 00:24:57;;;;;;;17.50;5.60;;;15.90;64.10;;;;;;5008786;28;20037;-61
2021/04/22 00:27:22;;;;;;;14.18;5.57;;;15.90;64.20;;;;;;5039986;28;20029;-60
2021/04/22 00:29:48;;;;;;;16.08;6.15;;;15.80;64.10;;;;;;5016947;28;20140;-60
2021/04/22 00:32:15;;;;;;;17.48;5.75;;;15.80;64.20;;;;;;5038085;28;20043;-61
2021/04/22 00:34:40;;;;;;;10.52;5.00;;;15.80;64.30;;;;;;5022102;28;20464;-61
2021/04/22 00:37:06;;;;;;;16.48;6.05;;;15.80;64.40;;;;;;5042575;28;20033;-60
2021/04/22 00:39:31;;;;;;;14.05;5.07;;;15.80;64.50;;;;;;5039987;28;20029;-62
2021/04/22 00:41:57;;;;;;;11.27;5.35;;;15.70;64.60;;;;;;5039411;28;20052;-59
2021/04/22 00:44:22;;;;;;;14.02;5.20;;;15.70;64.60;;;;;;5039465;28;20483;-60
2021/04/22 00:46:48;;;;;;;10.82;5.07;;;15.70;64.70;;;;;;5041954;28;20053;-59
2021/04/22 00:49:13;;;;;;;11.23;4.85;;;15.70;64.80;;;;;;5024296;28;20532;-60
2021/04/22 00:51:39;;;;;;;9.45;4.68;;;15.60;64.70;;;;;;5007077;28;20033;-60
2021/04/22 00:54:05;;;;;;;10.30;5.35;;;15.60;64.80;;;;;;5018123;28;20045;-61
2021/04/22 00:56:30;;;;;;;12.65;5.10;;;15.60;64.90;;;;;;5004323;28;20025;-61
2021/04/22 00:58:56;;;;;;;9.40;5.10;;;15.60;65.00;;;;;;5024043;28;20044;-62
2021/04/22 01:01:21;;;;;;;15.02;5.20;;;15.50;65.00;;;;;;5023027;28;20447;-61
2021/04/22 01:03:47;;;;;;;11.00;5.03;;;15.60;65.10;;;;;;5041909;28;20048;-59
2021/04/22 01:06:12;;;;;;;11.50;5.20;;;15.50;65.20;;;;;;5022412;28;20045;-61
2021/04/22 01:08:38;;;;;;;11.85;5.18;;;15.50;65.30;;;;;;5036234;28;20065;-61
2021/04/22 01:11:06;;;;;;;12.25;4.80;;;15.50;65.30;;;;;;5041394;28;20025;-60
2021/04/22 01:13:31;;;;;;;10.93;5.03;;;15.40;65.40;;;;;;5042668;28;20021;-60
2021/04/22 01:15:57;;;;;;;11.45;4.68;;;15.40;65.40;;;;;;5038563;28;20032;-60
2021/04/22 01:18:22;;;;;;;9.77;4.65;;;15.40;65.50;;;;;;5039074;28;20288;-60
2021/04/22 01:20:49;;;;;;;8.43;4.40;;;15.40;65.60;;;;;;5017463;28;20044;-59
2021/04/22 01:23:15;;;;;;;13.98;5.55;;;15.40;65.60;;;;;;5006499;28;20021;-61
2021/04/22 01:25:43;;;;;;;10.18;4.32;;;15.40;65.60;;;;;;5020115;28;20090;-60
2021/04/22 01:28:11;;;;;;;10.40;4.90;;;15.30;65.60;;;;;;5038993;28;20360;-60
2021/04/22 01:30:38;;;;;;;12.40;5.30;;;15.30;65.70;;;;;;5023842;28;20032;-60
2021/04/22 01:33:06;;;;;;;7.72;4.53;;;15.30;66.50;;;;;;5018445;28;20035;-59
2021/04/22 01:35:34;;;;;;;11.75;4.65;;;15.30;65.90;;;;;;5020398;28;20052;-61
2021/04/22 01:37:59;;;;;;;10.43;5.30;;;15.30;65.90;;;;;;5020255;28;20022;-60
2021/04/22 01:40:25;;;;;;;9.50;5.50;;;15.30;66.00;;;;;;5008414;28;21045;-61
2021/04/22 01:42:51;;;;;;;7.55;5.32;;;15.20;66.00;;;;;;5044232;28;20033;-61
2021/04/22 01:45:16;;;;;;;10.15;5.28;;;15.20;66.10;;;;;;5043562;28;20078;-61
2021/04/22 01:47:43;;;;;;;10.43;5.15;;;15.20;66.20;;;;;;5043824;28;20118;-60
2021/04/22 01:50:10;;;;;;;9.10;5.35;;;15.20;66.20;;;;;;5025504;28;20033;-61
2021/04/22 01:52:36;;;;;;;9.50;5.13;;;15.20;66.30;;;;;;5025146;28;20075;-61
2021/04/22 01:55:02;;;;;;;10.10;5.10;;;15.20;66.30;;;;;;5022067;28;20472;-61
2021/04/22 01:57:28;;;;;;;11.32;5.95;;;15.10;66.30;;;;;;5041516;28;20017;-60
2021/04/22 01:59:53;;;;;;;9.27;5.15;;;15.10;66.40;;;;;;5040479;28;20040;-60
2021/04/22 02:02:19;;;;;;;6.82;4.85;;;15.20;66.60;;;;;;5044169;28;20079;-60
2021/04/22 02:04:45;;;;;;;7.25;5.20;;;15.20;66.60;;;;;;5042774;28;20438;-60
2021/04/22 02:07:12;;;;;;;6.93;4.63;;;15.10;66.70;;;;;;5043796;28;20041;-60
2021/04/22 02:09:37;;;;;;;7.95;5.10;;;15.10;66.80;;;;;;5026767;28;20037;-61
2021/04/22 02:12:03;;;;;;;9.05;5.40;;;15.10;66.80;;;;;;5041705;28;20530;-59
2021/04/22 02:14:29;;;;;;;10.90;5.50;;;15.10;66.90;;;;;;5022363;28;20120;-62
2021/04/22 02:16:54;;;;;;;7.25;5.30;;;15.00;66.90;;;;;;5038505;28;20021;-60
2021/04/22 02:19:20;;;;;;;8.52;5.65;;;15.00;67.00;;;;;;5022563;28;20025;-60
2021/04/22 02:21:46;;;;;;;9.88;6.45;;;15.00;67.00;;;;;;5043685;28;20040;-59
2021/04/22 02:24:11;;;;;;;10.13;6.25;;;15.00;67.10;;;;;;5042244;28;20021;-59
2021/04/22 02:26:37;;;;;;;12.40;5.75;;;15.00;67.10;;;;;;5022811;28;20120;-62
2021/04/22 02:29:03;;;;;;;12.60;6.10;;;15.00;67.20;;;;;;5008502;28;20354;-60
2021/04/22 02:31:28;;;;;;;9.43;5.95;;;15.00;67.10;;;;;;5041079;28;20028;-61
2021/04/22 02:33:54;;;;;;;12.38;5.68;;;14.90;67.10;;;;;;5025295;28;20043;-61
2021/04/22 02:36:20;;;;;;;11.07;5.68;;;14.90;67.10;;;;;;5025129;28;20029;-60
2021/04/22 02:38:46;;;;;;;9.25;5.72;;;15.00;67.20;;;;;;5041161;28;20111;-60
2021/04/22 02:41:11;;;;;;;10.77;5.80;;;15.00;67.20;;;;;;5039499;28;20243;-61
2021/04/22 02:43:37;;;;;;;11.88;5.95;;;14.90;67.10;;;;;;5024551;28;20021;-61
2021/04/22 02:46:02;;;;;;;9.02;5.07;;;14.90;67.10;;;;;;5026031;28;20043;-61
2021/04/22 02:48:28;;;;;;;15.13;6.18;;;14.90;67.20;;;;;;5026600;28;20068;-60
2021/04/22 02:50:54;;;;;;;11.18;5.68;;;14.90;67.10;;;;;;5023304;28;20065;-61
2021/04/22 02:53:20;;;;;;;9.15;5.78;;;14.90;67.20;;;;;;5008508;28;20041;-59
2021/04/22 02:55:46;;;;;;;7.28;5.85;;;14.90;67.20;;;;;;5021097;28;20025;-59
2021/04/22 02:58:13;;;;;;;9.43;5.90;;;14.90;67.20;;;;;;5038492;28;20040;-60
2021/04/22 03:00:38;;;;;;;9.10;5.95;;;14.80;67.20;;;;;;5023515;28;20539;-60
2021/04/22 03:03:04;;;;;;;10.52;5.47;;;14.80;67.20;;;;;;5040716;28;20029;-61
2021/04/22 03:05:30;;;;;;;9.40;5.90;;;14.80;67.20;;;;;;5019323;28;21061;-59
2021/04/22 03:07:55;;;;;;;7.20;5.47;;;14.80;67.20;;;;;;5040356;28;20033;-61
2021/04/22 03:10:22;;;;;;;8.05;5.50;;;14.80;67.20;;;;;;5023499;28;20256;-62
2021/04/22 03:12:47;;;;;;;6.78;5.60;;;14.80;67.10;;;;;;5022405;28;20423;-60
2021/04/22 03:15:13;;;;;;;7.30;6.03;;;14.80;67.20;;;;;;5038376;28;20029;-61
2021/04/22 03:17:39;;;;;;;8.23;5.32;;;14.80;67.20;;;;;;4987769;28;20072;-60
2021/04/22 03:20:05;;;;;;;10.18;5.72;;;14.70;67.20;;;;;;5021887;28;20041;-60
2021/04/22 03:22:32;;;;;;;9.63;6.15;;;14.70;67.20;;;;;;5023207;28;20158;-61
2021/04/22 03:24:58;;;;;;;6.65;5.32;;;14.70;67.20;;;;;;5026477;28;20120;-61
2021/04/22 03:27:23;;;;;;;9.05;5.35;;;14.70;67.20;;;;;;5037522;28;20030;-61
2021/04/22 03:29:49;;;;;;;9.82;5.72;;;14.70;67.30;;;;;;5022020;28;20037;-60
2021/04/22 03:32:14;;;;;;;11.20;5.85;;;14.70;67.20;;;;;;5042432;28;20056;-59
2021/04/22 03:34:40;;;;;;;7.88;5.10;;;14.70;67.30;;;;;;5021692;28;20048;-60
2021/04/22 03:37:06;;;;;;;6.72;5.47;;;14.60;67.20;;;;;;5041713;28;21051;-61
2021/04/22 03:39:31;;;;;;;9.63;5.00;;;14.60;67.20;;;;;;5044744;28;20024;-59
2021/04/22 03:41:57;;;;;;;9.18;5.43;;;14.60;67.30;;;;;;5043251;28;20033;-60
2021/04/22 03:44:22;;;;;;;11.73;4.97;;;14.60;67.40;;;;;;5041961;28;20037;-61
2021/04/22 03:46:48;;;;;;;7.10;5.28;;;14.50;67.40;;;;;;5041344;28;20040;-61
2021/04/22 03:49:13;;;;;;;7.50;4.93;;;14.50;67.40;;;;;;5023659;28;20032;-61
2021/04/22 03:51:39;;;;;;;10.98;5.18;;;14.50;67.50;;;;;;5043959;28;20032;-60
2021/04/22 03:54:05;;;;;;;9.23;5.35;;;14.50;67.60;;;;;;5039721;28;20025;-61
2021/04/22 03:56:30;;;;;;;8.07;4.72;;;14.50;67.60;;;;;;5018173;28;20032;-60
2021/04/22 03:58:56;;;;;;;5.38;4.78;;;14.40;67.60;;;;;;5001585;28;20041;-61
2021/04/22 04:01:21;;;;;;;7.82;4.93;;;14.40;67.60;;;;;;5039637;28;20388;-60
2021/04/22 04:03:47;;;;;;;6.75;4.70;;;14.30;67.70;;;;;;5040140;28;20049;-60
2021/04/22 04:06:12;;;;;;;6.60;4.95;;;14.40;67.70;;;;;;5043025;28;20167;-61
2021/04/22 04:08:38;;;;;;;7.07;4.82;;;14.30;67.70;;;;;;5040529;28;20025;-60
2021/04/22 04:11:04;;;;;;;7.05;4.93;;;14.30;67.70;;;;;;5040992;28;20034;-60
2021/04/22 04:13:29;;;;;;;8.93;4.70;;;14.30;67.70;;;;;;5041622;28;20520;-60
2021/04/22 04:15:55;;;;;;;6.65;4.57;;;14.30;67.80;;;;;;5042426;28;20112;-62
2021/04/22 04:18:21;;;;;;;7.68;4.57;;;14.30;67.90;;;;;;5039679;28;20488;-61
2021/04/22 04:20:46;;;;;;;7.47;4.82;;;14.30;67.90;;;;;;5041751;28;20591;-60
2021/04/22 04:23:12;;;;;;;8.85;4.57;;;14.20;67.90;;;;;;5003617;28;20385;-60
2021/04/22 04:25:37;;;;;;;24.90;6.07;;;14.20;67.90;;;;;;5035297;28;20037;-61
2021/04/22 04:28:03;;;;;;;42.58;6.78;;;14.20;67.80;;;;;;5022123;28;20511;-60
2021/04/22 04:30:29;;;;;;;26.63;6.10;;;14.20;67.80;;;;;;5023420;28;20078;-61
2021/04/22 04:32:55;;;;;;;18.73;4.93;;;14.20;68.00;;;;;;5024597;28;20032;-61
2021/04/22 04:35:20;;;;;;;29.17;5.15;;;14.20;68.00;;;;;;5023197;28;20041;-60
2021/04/22 04:37:46;;;;;;;30.50;5.47;;;14.20;68.00;;;;;;5021312;28;20341;-62
2021/04/22 04:40:12;;;;;;;31.92;6.40;;;14.20;68.20;;;;;;5038713;28;20033;-61
2021/04/22 04:42:38;;;;;;;42.00;6.15;;;14.10;68.40;;;;;;5037231;28;20025;-60
2021/04/22 04:45:05;;;;;;;34.80;5.85;;;14.10;68.50;;;;;;5007991;28;20503;-60
2021/04/22 04:47:30;;;;;;;45.55;5.88;;;14.10;68.60;;;;;;5021663;28;20048;-61
2021/04/22 04:49:56;;;;;;;38.15;6.55;;;14.10;68.60;;;;;;5019955;28;20524;-57
2021/04/22 04:52:21;;;;;;;39.33;5.65;;;14.10;68.80;;;;;;5039915;28;20032;-61
2021/04/22 04:54:47;;;;;;;28.90;6.05;;;14.10;68.80;;;;;;5039629;28;20033;-61
2021/04/22 04:57:13;;;;;;;34.45;5.72;;;14.10;68.80;;;;;;5023261;28;20021;-61
2021/04/22 04:59:38;;;;;;;28.60;5.78;;;14.00;68.60;;;;;;5007710;28;20421;-61
2021/04/22 05:02:04;;;;;;;25.00;5.65;;;14.00;68.60;;;;;;5016424;28;20036;-60
2021/04/22 05:04:30;;;;;;;19.80;5.82;;;14.00;68.60;;;;;;5033983;28;20037;-61
2021/04/22 05:06:55;;;;;;;22.55;4.97;;;14.00;68.60;;;;;;5034020;28;20028;-60
2021/04/22 05:09:21;;;;;;;23.50;5.45;;;14.00;68.80;;;;;;5001781;28;20088;-60
2021/04/22 05:11:46;;;;;;;32.47;6.25;;;14.00;69.00;;;;;;5015635;28;20078;-61
2021/04/22 05:14:12;;;;;;;18.92;5.93;;;14.00;69.00;;;;;;5020409;28;20095;-59
2021/04/22 05:16:37;;;;;;;39.80;6.10;;;14.00;69.10;;;;;;5034554;28;20040;-60
2021/04/22 05:19:03;;;;;;;18.98;5.43;;;13.90;69.10;;;;;;4998462;28;20032;-60
2021/04/22 05:21:29;;;;;;;21.63;5.53;;;13.90;69.60;;;;;;5034590;28;20487;-61
2021/04/22 05:23:55;;;;;;;25.10;5.78;;;13.80;69.50;;;;;;5020686;28;20048;-59
2021/04/22 05:26:21;;;;;;;28.20;7.13;;;13.90;69.60;;;;;;5016504;28;20044;-60
2021/04/22 05:28:47;;;;;;;19.38;5.80;;;13.80;69.70;;;;;;5033735;28;20029;-60
2021/04/22 05:31:12;;;;;;;29.98;7.47;;;13.80;69.80;;;;;;5001646;28;20079;-61
2021/04/22 05:33:38;;;;;;;33.92;6.00;;;13.80;69.80;;;;;;5017005;28;20037;-60
2021/04/22 05:36:04;;;;;;;29.65;6.30;;;13.80;69.80;;;;;;5017728;28;20440;-60
2021/04/22 05:38:30;;;;;;;41.08;6.50;;;13.70;69.90;;;;;;5002737;28;20026;-59
2021/04/22 05:40:55;;;;;;;22.35;6.20;;;13.70;70.00;;;;;;5014603;28;20025;-61
2021/04/22 05:43:21;;;;;;;16.92;6.55;;;13.70;70.00;;;;;;5033068;28;20171;-61
2021/04/22 05:45:46;;;;;;;28.77;6.85;;;13.70;70.00;;;;;;5019115;28;20071;-61
2021/04/22 05:48:12;;;;;;;25.75;5.78;;;13.70;70.00;;;;;;4999147;28;20045;-60
2021/04/22 05:50:37;;;;;;;23.00;5.30;;;13.70;70.10;;;;;;5014379;28;20094;-60
2021/04/22 05:53:03;;;;;;;33.80;5.50;;;13.70;70.10;;;;;;5032403;28;20037;-60
2021/04/22 05:55:29;;;;;;;25.75;5.85;;;13.70;70.00;;;;;;5028018;28;20530;-60
2021/04/22 05:57:55;;;;;;;21.85;6.10;;;13.70;70.10;;;;;;5033900;28;20235;-61
2021/04/22 06:00:21;;;;;;;17.05;5.72;;;13.60;70.00;;;;;;5016069;28;20069;-59
2021/04/22 06:02:47;;;;;;;11.55;5.20;;;13.60;70.10;;;;;;5022235;28;20476;-60
2021/04/22 06:05:13;;;;;;;23.30;5.97;;;13.70;70.10;;;;;;5018510;28;20036;-64
2021/04/22 06:07:38;;;;;;;12.73;5.28;;;13.60;70.10;;;;;;5000590;28;20854;-60
2021/04/22 06:10:05;;;;;;;21.67;5.70;;;13.70;70.30;;;;;;4999477;28;20116;-62
2021/04/22 06:12:30;;;;;;;19.65;6.40;;;13.60;70.90;;;;;;5034395;28;20060;-63
2021/04/22 06:14:56;;;;;;;15.20;6.18;;;13.60;71.70;;;;;;5004157;28;20136;-60
2021/04/22 06:17:21;;;;;;;14.13;6.10;;;13.50;72.10;;;;;;5037902;28;20124;-60
2021/04/22 06:19:47;;;;;;;14.82;5.50;;;13.50;72.70;;;;;;5032009;28;20021;-62
2021/04/22 06:22:12;;;;;;;16.77;6.50;;;13.40;73.00;;;;;;5000573;28;20024;-61
2021/04/22 06:24:38;;;;;;;14.77;6.55;;;13.40;73.50;;;;;;5037658;28;20087;-62
2021/04/22 06:27:04;;;;;;;9.35;5.90;;;13.40;73.90;;;;;;5017009;28;20424;-61
2021/04/22 06:29:29;;;;;;;9.23;6.43;;;13.30;74.00;;;;;;5021926;28;20036;-63
2021/04/22 06:31:55;;;;;;;13.05;6.68;;;13.30;74.20;;;;;;5040623;28;20037;-61
2021/04/22 06:34:21;;;;;;;13.05;6.07;;;13.30;74.30;;;;;;5042485;28;20424;-63
2021/04/22 06:36:48;;;;;;;13.48;7.05;;;13.30;74.60;;;;;;5017476;28;20037;-62
2021/04/22 06:39:13;;;;;;;13.25;6.38;;;13.20;74.60;;;;;;5036742;28;20063;-62
2021/04/22 06:41:39;;;;;;;26.23;7.45;;;13.10;74.80;;;;;;5039681;28;20033;-61
2021/04/22 06:44:05;;;;;;;19.55;7.20;;;13.10;75.00;;;;;;5019934;28;20119;-61
2021/04/22 06:46:31;;;;;;;12.73;7.50;;;13.10;74.90;;;;;;5024941;28;20119;-60
2021/04/22 06:48:57;;;;;;;11.50;6.45;;;13.20;75.00;;;;;;5002688;28;20520;-62
2021/04/22 06:51:22;;;;;;;15.23;7.50;;;13.10;75.10;;;;;;5039693;28;20056;-62
2021/04/22 06:53:48;;;;;;;12.13;7.32;;;13.10;75.20;;;;;;5042698;28;20086;-60
2021/04/22 06:56:13;;;;;;;17.17;7.22;;;13.10;75.10;;;;;;5043331;28;20028;-61
2021/04/22 06:58:39;;;;;;;13.77;7.35;;;13.10;75.10;;;;;;5025876;28;20385;-61
2021/04/22 07:01:04;;;;;;;10.82;7.20;;;13.10;75.10;;;;;;5041575;28;20116;-62
2021/04/22 07:03:30;;;;;;;17.20;6.80;;;13.10;75.30;;;;;;5008231;28;20126;-61
2021/04/22 07:05:55;;;;;;;12.38;6.85;;;13.10;75.30;;;;;;5042660;28;20793;-62
2021/04/22 07:08:21;;;;;;;39.65;9.70;;;13.10;75.20;;;;;;5023855;28;20163;-61
2021/04/22 07:10:46;;;;;;;18.17;7.97;;;13.10;75.10;;;;;;5039036;28;20480;-60
2021/04/22 07:13:12;;;;;;;22.20;8.48;;;13.10;75.20;;;;;;5024243;28;20090;-61
2021/04/22 07:15:38;;;;;;;12.23;6.95;;;13.10;75.30;;;;;;5020463;28;20461;-61
2021/04/22 07:18:05;;;;;;;15.32;7.93;;;13.10;75.00;;;;;;5036577;28;20720;-62
2021/04/22 07:20:31;;;;;;;18.75;8.20;;;13.10;75.00;;;;;;5006274;28;20032;-61
2021/04/22 07:22:57;;;;;;;16.73;7.13;;;13.10;74.80;;;;;;5042150;28;20029;-60
2021/04/22 07:25:24;;;;;;;16.45;6.93;;;13.10;75.00;;;;;;5038193;28;20037;-61
2021/04/22 07:27:49;;;;;;;19.23;6.95;;;13.10;74.80;;;;;;5022161;28;20044;-61
2021/04/22 07:30:15;;;;;;;12.93;6.53;;;13.10;74.50;;;;;;5039225;28;20407;-60
2021/04/22 07:32:41;;;;;;;22.65;7.80;;;13.20;74.60;;;;;;5038275;28;20567;-60
2021/04/22 07:35:08;;;;;;;11.18;7.28;;;13.20;74.60;;;;;;5021814;28;20045;-60
2021/04/22 07:37:33;;;;;;;15.70;7.63;;;13.20;74.60;;;;;;5042388;28;20017;-60
2021/04/22 07:39:59;;;;;;;25.73;7.95;;;13.20;74.30;;;;;;5043290;28;20110;-59
2021/04/22 07:42:25;;;;;;;93.43;12.68;;;13.20;74.30;;;;;;5025209;28;20443;-62
2021/04/22 07:44:50;;;;;;;52.78;9.23;;;13.20;74.40;;;;;;5042929;28;20029;-62
2021/04/22 07:47:19;;;;;;;28.80;9.00;;;13.30;74.30;;;;;;5040218;28;20061;-60
2021/04/22 07:49:45;;;;;;;35.72;8.85;;;13.30;74.30;;;;;;5038912;28;20029;-62
2021/04/22 07:52:10;;;;;;;26.65;7.93;;;13.30;74.60;;;;;;5038057;28;20025;-61
2021/04/22 07:54:36;;;;;;;46.42;8.48;;;13.30;74.50;;;;;;5021315;28;20041;-61
2021/04/22 07:57:02;;;;;;;40.75;8.65;;;13.30;74.60;;;;;;5017020;28;20037;-60
2021/04/22 07:59:28;;;;;;;27.77;8.40;;;13.30;74.30;;;;;;5038606;28;20536;-60
2021/04/22 08:01:53;;;;;;;19.65;8.10;;;13.40;74.30;;;;;;5035978;28;20116;-60
2021/04/22 08:04:19;;;;;;;14.50;7.38;;;13.40;74.30;;;;;;5040461;28;20021;-62
2021/04/22 08:06:44;;;;;;;16.70;7.53;;;13.30;73.90;;;;;;5024255;28;20076;-62
2021/04/22 08:09:10;;;;;;;21.02;7.55;;;13.20;73.60;;;;;;5039869;28;20037;-61
2021/04/22 08:11:36;;;;;;;40.80;9.65;;;13.40;73.70;;;;;;5039624;28;20035;-61
2021/04/22 08:14:02;;;;;;;22.17;7.15;;;13.40;73.90;;;;;;5038125;28;20029;-60
2021/04/22 08:16:28;;;;;;;29.05;8.05;;;13.50;73.60;;;;;;5007627;28;20029;-61
2021/04/22 08:18:54;;;;;;;30.45;7.90;;;13.50;73.40;;;;;;5020363;28;20116;-61
2021/04/22 08:21:19;;;;;;;28.13;8.60;;;13.50;73.90;;;;;;5016967;28;20128;-59
2021/04/22 08:23:45;;;;;;;43.08;9.07;;;13.50;73.10;;;;;;5038662;28;20035;-60
2021/04/22 08:26:16;;;;;;;34.13;8.80;;;13.50;72.90;;;;;;5006727;28;20489;-60
2021/04/22 08:28:41;;;;;;;60.00;10.70;;;13.50;72.60;;;;;;5019642;28;20033;-61
2021/04/22 08:31:09;;;;;;;66.57;9.90;;;13.60;73.10;;;;;;5018125;28;20522;-61
2021/04/22 08:33:36;;;;;;;59.15;9.63;;;13.70;72.80;;;;;;5021209;28;20033;-62
2021/04/22 08:36:02;;;;;;;29.13;7.97;;;13.60;72.50;;;;;;5017069;28;20045;-61
2021/04/22 08:38:28;;;;;;;35.70;8.45;;;13.60;72.30;;;;;;5031838;28;20059;-62
2021/04/22 08:40:53;;;;;;;50.28;9.90;;;13.60;72.70;;;;;;5019994;28;20133;-61
2021/04/22 08:43:19;;;;;;;40.85;9.52;;;13.70;72.40;;;;;;5037269;28;20040;-62
2021/04/22 08:45:45;;;;;;;47.03;8.80;;;13.70;72.40;;;;;;5020596;28;20064;-63
2021/04/22 08:48:11;;;;;;;47.47;9.75;;;13.70;72.40;;;;;;5034819;28;20053;-61
2021/04/22 08:50:37;;;;;;;30.60;7.07;;;13.70;72.10;;;;;;5015612;28;20188;-60
2021/04/22 08:53:06;;;;;;;40.22;8.60;;;13.70;71.90;;;;;;5033885;28;20029;-61
2021/04/22 08:55:32;;;;;;;34.85;8.23;;;13.70;71.90;;;;;;5022434;28;20115;-62
2021/04/22 08:57:58;;;;;;;36.42;7.50;;;13.80;72.00;;;;;;5035168;28;20068;-61
2021/04/22 09:00:25;;;;;;;39.08;8.45;;;13.70;72.10;;;;;;5016583;28;20078;-61
2021/04/22 09:02:51;;;;;;;44.13;7.93;;;13.70;72.00;;;;;;5032994;28;20392;-61
2021/04/22 09:05:17;;;;;;;25.75;7.50;;;13.80;72.10;;;;;;5017699;28;20036;-61
2021/04/22 09:07:43;;;;;;;29.45;7.28;;;13.80;71.90;;;;;;5039502;28;20488;-60
2021/04/22 09:10:10;;;;;;;37.85;8.35;;;13.90;71.80;;;;;;5037343;28;20041;-60
2021/04/22 09:12:35;;;;;;;36.83;7.15;;;13.90;71.70;;;;;;5017048;28;20032;-61
2021/04/22 09:15:10;;;;;;;55.45;8.82;;;13.90;71.70;;;;;;5036688;28;20090;-61
2021/04/22 09:17:36;;;;;;;23.70;7.45;;;13.90;72.00;;;;;;5013860;28;20025;-59
2021/04/22 09:20:02;;;;;;;31.85;7.25;;;13.90;71.60;;;;;;5037649;28;20043;-62
2021/04/22 09:22:36;;;;;;;45.75;8.68;;;14.00;71.60;;;;;;5012699;28;20029;-60
2021/04/22 09:25:22;;;;;;;36.45;8.48;;;14.00;71.80;;;;;;5021526;28;20539;-60
2021/04/22 09:27:48;;;;;;;;;;;14.00;72.10;;;;;;5016095;28;20044;-61
2021/04/22 09:30:15;;;;;;;51.22;9.10;;;14.00;72.10;;;;;;5014635;28;20307;-60
2021/04/22 09:32:41;;;;;;;60.28;8.65;;;14.10;72.10;;;;;;5018197;28;20033;-62
2021/04/22 09:35:13;;;;;;;53.28;9.60;;;14.10;72.30;;;;;;5018279;28;20041;-60
2021/04/22 09:37:41;;;;;;;45.00;8.80;;;14.10;72.10;;;;;;5019425;28;20053;-60
2021/04/22 09:40:23;;;;;;;52.85;8.90;;;14.10;72.00;;;;;;5014948;28;20033;-60
2021/04/22 09:42:49;;;;;;;61.47;9.18;;;14.20;72.20;;;;;;5038390;28;20017;-60
2021/04/22 09:45:16;;;;;;;160.07;17.58;;;14.20;72.20;;;;;;5033634;28;20090;-62
2021/04/22 09:47:42;;;;;;;36.22;9.00;;;14.20;72.30;;;;;;5017093;28;20506;-62
2021/04/22 09:50:13;;;;;;;98.75;14.32;;;14.20;72.30;;;;;;5015666;28;20033;-60
2021/04/22 09:52:41;;;;;;;92.78;12.52;;;14.30;72.50;;;;;;5002061;28;20068;-62
2021/04/22 09:55:12;;;;;;;79.03;10.85;;;14.30;72.40;;;;;;5019688;28;20718;-60
2021/04/22 09:57:37;;;;;;;56.40;9.65;;;14.40;72.50;;;;;;5022353;28;20033;-61
2021/04/22 10:00:09;;;;;;;51.78;10.10;;;14.30;72.40;;;;;;5004230;28;20079;-61
2021/04/22 10:02:53;;;;;;;42.33;9.98;;;14.40;72.40;;;;;;5036704;28;20039;-62
2021/04/22 10:05:21;;;;;;;48.47;9.60;;;14.40;72.50;;;;;;5008483;28;20055;-63
2021/04/22 10:07:47;;;;;;;51.40;9.98;;;14.40;72.40;;;;;;5003942;28;20119;-60
2021/04/22 10:10:15;;;;;;;30.83;9.07;;;14.50;72.70;;;;;;5037739;28;20029;-62
2021/04/22 10:12:41;;;;;;;27.02;8.80;;;14.40;72.40;;;;;;5024729;28;20018;-59
2021/04/22 10:15:14;;;;;;;32.42;8.95;;;14.50;72.00;;;;;;5041850;28;20024;-60
2021/04/22 10:17:39;;;;;;;26.45;9.82;;;14.50;72.60;;;;;;5039957;28;20032;-60
2021/04/22 10:20:10;;;;;;;36.88;10.00;;;14.50;71.40;;;;;;5022557;28;20078;-60
2021/04/22 10:22:41;;;;;;;23.30;8.98;;;14.50;71.50;;;;;;5010261;28;20205;-60
2021/04/22 10:25:08;;;;;;;25.75;8.93;;;14.60;71.60;;;;;;5023063;28;20033;-62
2021/04/22 10:27:34;;;;;;;25.15;8.60;;;14.60;71.30;;;;;;5024323;28;20034;-60
2021/04/22 10:30:00;;;;;;;35.63;10.95;;;14.60;71.00;;;;;;5008695;28;20026;-60
2021/04/22 10:32:25;;;;;;;38.13;10.43;;;14.70;70.70;;;;;;5005488;28;20067;-60
2021/04/22 10:34:51;;;;;;;42.90;10.38;;;14.70;70.90;;;;;;5020287;28;20025;-60
2021/04/22 10:37:18;;;;;;;46.00;11.73;;;14.80;70.80;;;;;;5003815;28;20126;-59
2021/04/22 10:39:45;;;;;;;32.28;10.45;;;14.80;71.50;;;;;;5041576;28;20086;-60
2021/04/22 10:42:10;;;;;;;85.35;13.35;;;14.80;70.50;;;;;;5022050;28;20056;-60
2021/04/22 10:44:37;;;;;;;63.75;11.30;;;14.90;70.30;;;;;;5004034;28;20033;-62
2021/04/22 10:47:03;;;;;;;41.20;10.15;;;14.90;70.30;;;;;;5035870;28;20057;-62
2021/04/22 10:49:28;;;;;;;42.22;11.45;;;15.00;70.10;;;;;;5041229;28;20036;-61
2021/04/22 10:51:54;;;;;;;26.00;9.48;;;15.00;70.10;;;;;;5024980;28;20688;-61
2021/04/22 10:54:19;;;;;;;24.65;10.60;;;15.00;68.70;;;;;;5025626;28;20059;-61
2021/04/22 10:56:46;;;;;;;27.15;10.43;;;15.10;68.10;;;;;;4992490;28;20049;-59
2021/04/22 10:59:22;;;;;;;23.63;10.05;;;15.10;68.00;;;;;;5023179;28;20079;-61
2021/04/22 11:01:47;;;;;;;44.00;10.80;;;15.10;66.70;;;;;;5023072;28;20028;-61
2021/04/22 11:04:13;;;;;;;32.38;10.35;;;15.20;67.20;;;;;;5007531;28;20044;-60
2021/04/22 11:06:39;;;;;;;37.53;10.35;;;15.20;67.00;;;;;;5022861;28;20025;-60
2021/04/22 11:09:18;;;;;;;47.97;10.88;;;15.30;66.80;;;;;;5040628;28;20021;-60
2021/04/22 11:11:58;;;;;;;33.88;10.02;;;15.30;66.60;;;;;;5038963;28;20112;-61
2021/04/22 11:14:33;;;;;;;27.73;10.48;;;15.40;65.80;;;;;;5023882;28;20041;-61
2021/04/22 11:16:59;;;;;;;26.52;9.45;;;15.50;65.10;;;;;;5044067;28;20392;-60
2021/04/22 11:19:30;;;;;;;35.10;10.35;;;15.50;64.90;;;;;;5023376;28;20489;-60
2021/04/22 11:22:20;;;;;;;31.98;10.85;;;15.60;64.60;;;;;;5038844;28;20068;-62
2021/04/22 11:24:58;;;;;;;31.45;11.35;;;15.60;64.80;;;;;;5037337;28;20037;-60
2021/04/22 11:27:24;;;;;;;42.85;11.45;;;15.70;65.10;;;;;;5038620;28;20021;-60
2021/04/22 11:29:57;;;;;;;41.95;10.27;;;15.80;65.00;;;;;;5041678;28;20475;-62
2021/04/22 11:32:33;;;;;;;26.73;10.55;;;15.90;64.70;;;;;;5024165;28;20183;-59
2021/04/22 11:35:05;;;;;;;23.08;9.65;;;15.90;64.20;;;;;;5024514;28;20400;-61
2021/04/22 11:37:37;;;;;;;24.63;9.82;;;16.00;63.30;;;;;;5041266;28;20476;-60
2021/04/22 11:40:23;;;;;;;20.70;9.52;;;16.10;63.00;;;;;;5005108;28;20045;-59
2021/04/22 11:42:50;;;;;;;22.45;9.45;;;16.20;62.40;;;;;;5042869;28;20102;-61
2021/04/22 11:45:21;;;;;;;21.83;9.93;;;16.20;61.80;;;;;;5008857;28;20029;-60
2021/04/22 11:47:48;;;;;;;28.98;9.70;;;16.20;61.90;;;;;;5007284;28;20528;-62
2021/04/22 11:50:15;;;;;;;26.40;8.88;;;16.40;61.70;;;;;;5041304;28;20041;-61
2021/04/22 11:52:53;;;;;;;19.55;8.73;;;16.40;62.30;;;;;;5006511;28;20028;-62
2021/04/22 11:55:32;;;;;;;16.95;8.43;;;16.50;60.30;;;;;;5026904;28;20025;-62
2021/04/22 11:58:08;;;;;;;18.55;8.90;;;16.60;58.90;;;;;;5017772;28;20109;-60
2021/04/22 12:00:44;;;;;;;;;;;16.70;59.50;;;;;;5023908;28;20033;-63
2021/04/22 12:03:11;;;;;;;15.13;8.52;;;16.70;59.00;;;;;;5007345;28;20338;-60
2021/04/22 12:05:38;;;;;;;19.15;8.18;;;16.80;58.50;;;;;;5041652;28;20029;-62
2021/04/22 12:08:05;;;;;;;13.75;8.25;;;16.70;58.40;;;;;;5019230;28;20040;-61
2021/04/22 12:10:32;;;;;;;18.73;7.47;;;16.90;57.90;;;;;;5008498;28;20033;-60
2021/04/22 12:13:11;;;;;;;18.02;8.20;;;17.00;57.40;;;;;;5018548;28;20040;-61
2021/04/22 12:15:41;;;;;;;11.25;7.30;;;17.10;57.60;;;;;;5018204;28;20037;-63
2021/04/22 12:18:08;;;;;;;23.60;9.07;;;17.10;57.50;;;;;;5015649;28;20037;-60
2021/04/22 12:20:33;;;;;;;17.05;8.05;;;17.20;57.80;;;;;;5039837;28;20092;-60
2021/04/22 12:22:59;;;;;;;27.95;7.75;;;17.20;57.70;;;;;;5021383;28;20037;-61
2021/04/22 12:25:25;;;;;;;20.23;7.60;;;17.20;57.60;;;;;;5015961;28;20033;-60
2021/04/22 12:27:51;;;;;;;13.35;7.72;;;17.20;57.90;;;;;;5003133;28;20120;-62
2021/04/22 12:30:21;;;;;;;19.88;7.28;;;17.30;57.90;;;;;;5017879;28;20037;-61
2021/04/22 12:33:10;;;;;;;23.27;7.55;;;17.30;57.90;;;;;;5017808;28;20029;-62
2021/04/22 12:35:36;;;;;;;24.40;8.70;;;17.30;58.00;;;;;;5021571;28;20033;-59